San Bruno, California
Current Conditions -  °F | °C
As of 3:56 PM on Monday 20 Oct 2014 (Local Time) from KSFO Reporting Station
Broken Clouds Broken Clouds  
Wind Chill: 72°   Ceiling: 8500
Heat Index: 72°   Visibility: 10mi
Dew Point: 58°   Wind: 16mph
Humidity: 61%   Direction: 280°W
Pressure: 29.97"   Gusts: NA
Location:  37.62°N, 122.41°W
Report Text: KSFO 202256Z 28014KT 10SM SCT028 SCT060 BKN085 22/14 A2997 RMK AO2 SLP150 T02220144
Loading
Personal Weather Stations






























Interactive Weather Map
Tropical Storm Tracking
New forecast layout! Learn more

10-Day Weather Forecast

Advertisements
Track Severe Weather on mobile